sensor_id;sensor_type;location;lat;lon;timestamp;P1;durP1;ratioP1;P2;durP2;ratioP2
11098;SDS011;12223;42.650;23.364;2023-02-19T00:00:10;21.23;;;17.53;;
11098;SDS011;12223;42.650;23.364;2023-02-19T00:02:40;30.73;;;27.70;;
11098;SDS011;12223;42.650;23.364;2023-02-19T00:05:09;21.87;;;19.63;;
11098;SDS011;12223;42.650;23.364;2023-02-19T00:07:36;21.47;;;15.37;;
11098;SDS011;12223;42.650;23.364;2023-02-19T00:10:03;18.77;;;15.30;;
11098;SDS011;12223;42.650;23.364;2023-02-19T00:12:29;19.93;;;16.70;;
11098;SDS011;12223;42.650;23.364;2023-02-19T00:14:56;18.97;;;16.43;;
11098;SDS011;12223;42.650;23.364;2023-02-19T00:17:23;21.47;;;17.13;;
11098;SDS011;12223;42.650;23.364;2023-02-19T00:19:51;18.60;;;15.03;;
11098;SDS011;12223;42.650;23.364;2023-02-19T00:22:18;20.20;;;18.33;;
11098;SDS011;12223;42.650;23.364;2023-02-19T00:24:44;21.10;;;16.93;;
11098;SDS011;12223;42.650;23.364;2023-02-19T00:27:11;22.67;;;14.60;;
11098;SDS011;12223;42.650;23.364;2023-02-19T00:29:38;23.57;;;15.73;;
11098;SDS011;12223;42.650;23.364;2023-02-19T00:32:05;20.00;;;15.53;;
11098;SDS011;12223;42.650;23.364;2023-02-19T00:34:31;16.87;;;11.73;;
11098;SDS011;12223;42.650;23.364;2023-02-19T00:37:00;20.20;;;14.80;;
11098;SDS011;12223;42.650;23.364;2023-02-19T00:39:26;18.80;;;14.10;;
11098;SDS011;12223;42.650;23.364;2023-02-19T00:41:53;19.37;;;14.87;;
11098;SDS011;12223;42.650;23.364;2023-02-19T00:44:20;16.97;;;13.27;;
11098;SDS011;12223;42.650;23.364;2023-02-19T00:46:47;26.83;;;18.40;;
11098;SDS011;12223;42.650;23.364;2023-02-19T00:49:15;16.50;;;13.80;;
11098;SDS011;12223;42.650;23.364;2023-02-19T00:51:45;17.10;;;14.30;;
11098;SDS011;12223;42.650;23.364;2023-02-19T00:54:13;19.27;;;15.23;;
11098;SDS011;12223;42.650;23.364;2023-02-19T00:56:40;31.00;;;18.23;;
11098;SDS011;12223;42.650;23.364;2023-02-19T00:59:07;24.33;;;17.90;;
11098;SDS011;12223;42.650;23.364;2023-02-19T01:01:34;18.37;;;14.00;;
11098;SDS011;12223;42.650;23.364;2023-02-19T01:04:01;16.37;;;12.47;;
11098;SDS011;12223;42.650;23.364;2023-02-19T01:06:27;18.53;;;14.67;;
11098;SDS011;12223;42.650;23.364;2023-02-19T01:08:56;18.17;;;13.67;;
11098;SDS011;12223;42.650;23.364;2023-02-19T01:11:25;15.90;;;13.37;;
11098;SDS011;12223;42.650;23.364;2023-02-19T01:13:55;17.50;;;12.27;;
11098;SDS011;12223;42.650;23.364;2023-02-19T01:16:22;13.50;;;11.37;;
11098;SDS011;12223;42.650;23.364;2023-02-19T01:18:49;16.23;;;11.93;;
11098;SDS011;12223;42.650;23.364;2023-02-19T01:21:17;16.90;;;14.17;;
11098;SDS011;12223;42.650;23.364;2023-02-19T01:23:45;19.97;;;15.23;;
11098;SDS011;12223;42.650;23.364;2023-02-19T01:26:13;20.03;;;14.87;;
11098;SDS011;12223;42.650;23.364;2023-02-19T01:28:43;16.17;;;12.83;;
11098;SDS011;12223;42.650;23.364;2023-02-19T01:31:11;18.50;;;14.90;;
11098;SDS011;12223;42.650;23.364;2023-02-19T01:33:39;19.07;;;17.23;;
11098;SDS011;12223;42.650;23.364;2023-02-19T01:36:06;16.10;;;13.43;;
11098;SDS011;12223;42.650;23.364;2023-02-19T01:38:33;19.37;;;12.63;;
11098;SDS011;12223;42.650;23.364;2023-02-19T01:41:01;15.93;;;13.47;;
11098;SDS011;12223;42.650;23.364;2023-02-19T01:43:30;16.33;;;13.43;;
11098;SDS011;12223;42.650;23.364;2023-02-19T01:45:59;20.90;;;15.23;;
11098;SDS011;12223;42.650;23.364;2023-02-19T01:48:27;19.83;;;14.40;;
11098;SDS011;12223;42.650;23.364;2023-02-19T01:50:57;19.57;;;15.73;;
11098;SDS011;12223;42.650;23.364;2023-02-19T01:53:31;19.73;;;14.67;;
11098;SDS011;12223;42.650;23.364;2023-02-19T01:56:03;18.87;;;14.30;;
11098;SDS011;12223;42.650;23.364;2023-02-19T01:58:32;18.50;;;14.17;;
11098;SDS011;12223;42.650;23.364;2023-02-19T02:01:02;16.10;;;14.33;;
11098;SDS011;12223;42.650;23.364;2023-02-19T02:03:31;17.27;;;14.73;;
11098;SDS011;12223;42.650;23.364;2023-02-19T02:06:00;18.77;;;15.53;;
11098;SDS011;12223;42.650;23.364;2023-02-19T02:08:30;16.63;;;14.90;;
11098;SDS011;12223;42.650;23.364;2023-02-19T02:11:17;15.37;;;13.50;;
11098;SDS011;12223;42.650;23.364;2023-02-19T02:13:45;19.67;;;13.87;;
11098;SDS011;12223;42.650;23.364;2023-02-19T02:16:16;20.10;;;15.10;;
11098;SDS011;12223;42.650;23.364;2023-02-19T02:18:53;20.47;;;15.43;;
11098;SDS011;12223;42.650;23.364;2023-02-19T02:21:29;15.63;;;13.97;;
11098;SDS011;12223;42.650;23.364;2023-02-19T02:24:08;19.40;;;13.93;;
11098;SDS011;12223;42.650;23.364;2023-02-19T02:26:50;17.37;;;13.40;;
11098;SDS011;12223;42.650;23.364;2023-02-19T02:32:26;18.40;;;14.47;;
11098;SDS011;12223;42.650;23.364;2023-02-19T02:34:58;14.23;;;11.57;;
11098;SDS011;12223;42.650;23.364;2023-02-19T02:37:29;16.60;;;12.90;;
11098;SDS011;12223;42.650;23.364;2023-02-19T02:40:00;14.40;;;13.00;;
11098;SDS011;12223;42.650;23.364;2023-02-19T02:42:28;15.13;;;11.80;;
11098;SDS011;12223;42.650;23.364;2023-02-19T02:44:56;15.03;;;11.37;;
11098;SDS011;12223;42.650;23.364;2023-02-19T02:47:43;14.33;;;10.20;;
11098;SDS011;12223;42.650;23.364;2023-02-19T02:50:15;12.67;;;11.43;;
11098;SDS011;12223;42.650;23.364;2023-02-19T02:52:46;17.47;;;13.37;;
11098;SDS011;12223;42.650;23.364;2023-02-19T02:55:34;16.23;;;13.30;;
11098;SDS011;12223;42.650;23.364;2023-02-19T02:58:03;15.00;;;12.60;;
11098;SDS011;12223;42.650;23.364;2023-02-19T03:00:30;15.13;;;12.93;;
11098;SDS011;12223;42.650;23.364;2023-02-19T03:03:24;17.93;;;14.23;;
11098;SDS011;12223;42.650;23.364;2023-02-19T03:05:54;15.10;;;12.90;;
11098;SDS011;12223;42.650;23.364;2023-02-19T03:08:24;16.13;;;13.33;;
11098;SDS011;12223;42.650;23.364;2023-02-19T03:10:56;15.33;;;12.57;;
11098;SDS011;12223;42.650;23.364;2023-02-19T03:13:47;15.77;;;12.10;;
11098;SDS011;12223;42.650;23.364;2023-02-19T03:16:35;11.33;;;10.13;;
11098;SDS011;12223;42.650;23.364;2023-02-19T03:19:24;14.17;;;12.33;;
11098;SDS011;12223;42.650;23.364;2023-02-19T03:21:53;15.50;;;10.67;;
11098;SDS011;12223;42.650;23.364;2023-02-19T03:24:27;20.17;;;14.93;;
11098;SDS011;12223;42.650;23.364;2023-02-19T03:27:14;15.60;;;11.77;;
11098;SDS011;12223;42.650;23.364;2023-02-19T03:29:44;25.87;;;17.83;;
11098;SDS011;12223;42.650;23.364;2023-02-19T03:32:16;20.20;;;15.07;;
11098;SDS011;12223;42.650;23.364;2023-02-19T03:34:47;26.60;;;16.93;;
11098;SDS011;12223;42.650;23.364;2023-02-19T03:37:20;20.60;;;17.03;;
11098;SDS011;12223;42.650;23.364;2023-02-19T03:39:52;18.93;;;14.63;;
11098;SDS011;12223;42.650;23.364;2023-02-19T03:42:22;15.70;;;12.00;;
11098;SDS011;12223;42.650;23.364;2023-02-19T03:45:01;18.20;;;13.13;;
11098;SDS011;12223;42.650;23.364;2023-02-19T03:47:39;14.30;;;12.50;;
11098;SDS011;12223;42.650;23.364;2023-02-19T03:50:14;17.97;;;13.87;;
11098;SDS011;12223;42.650;23.364;2023-02-19T03:52:46;16.80;;;12.03;;
11098;SDS011;12223;42.650;23.364;2023-02-19T03:55:21;17.63;;;13.90;;
11098;SDS011;12223;42.650;23.364;2023-02-19T03:57:56;30.47;;;18.93;;
11098;SDS011;12223;42.650;23.364;2023-02-19T04:00:30;16.13;;;12.60;;
11098;SDS011;12223;42.650;23.364;2023-02-19T04:03:01;15.40;;;11.93;;
11098;SDS011;12223;42.650;23.364;2023-02-19T04:05:36;24.80;;;14.77;;
11098;SDS011;12223;42.650;23.364;2023-02-19T04:08:09;20.23;;;14.27;;
11098;SDS011;12223;42.650;23.364;2023-02-19T04:10:39;23.87;;;15.83;;
11098;SDS011;12223;42.650;23.364;2023-02-19T04:13:10;31.17;;;18.57;;
11098;SDS011;12223;42.650;23.364;2023-02-19T04:15:42;24.20;;;14.17;;
11098;SDS011;12223;42.650;23.364;2023-02-19T04:18:13;20.10;;;13.13;;
11098;SDS011;12223;42.650;23.364;2023-02-19T04:20:45;16.53;;;12.53;;
11098;SDS011;12223;42.650;23.364;2023-02-19T04:23:13;14.73;;;13.30;;
11098;SDS011;12223;42.650;23.364;2023-02-19T04:25:43;19.67;;;14.57;;
11098;SDS011;12223;42.650;23.364;2023-02-19T04:28:14;15.97;;;13.17;;
11098;SDS011;12223;42.650;23.364;2023-02-19T04:30:43;16.90;;;14.47;;
11098;SDS011;12223;42.650;23.364;2023-02-19T04:33:11;15.10;;;12.23;;
11098;SDS011;12223;42.650;23.364;2023-02-19T04:35:37;14.87;;;12.37;;
11098;SDS011;12223;42.650;23.364;2023-02-19T04:38:05;19.43;;;17.33;;
11098;SDS011;12223;42.650;23.364;2023-02-19T04:40:33;17.47;;;14.73;;
11098;SDS011;12223;42.650;23.364;2023-02-19T04:42:59;21.03;;;18.13;;
11098;SDS011;12223;42.650;23.364;2023-02-19T04:45:26;18.37;;;16.13;;
11098;SDS011;12223;42.650;23.364;2023-02-19T04:47:53;21.00;;;16.73;;
11098;SDS011;12223;42.650;23.364;2023-02-19T04:50:20;21.70;;;15.57;;
11098;SDS011;12223;42.650;23.364;2023-02-19T04:52:47;21.57;;;15.37;;
11098;SDS011;12223;42.650;23.364;2023-02-19T04:55:15;20.90;;;15.17;;
11098;SDS011;12223;42.650;23.364;2023-02-19T04:57:42;17.77;;;14.30;;
11098;SDS011;12223;42.650;23.364;2023-02-19T05:00:09;21.00;;;16.40;;
11098;SDS011;12223;42.650;23.364;2023-02-19T05:02:37;26.90;;;17.97;;
11098;SDS011;12223;42.650;23.364;2023-02-19T05:05:03;26.60;;;16.67;;
11098;SDS011;12223;42.650;23.364;2023-02-19T05:07:31;20.67;;;15.07;;
11098;SDS011;12223;42.650;23.364;2023-02-19T05:09:58;23.67;;;17.77;;
11098;SDS011;12223;42.650;23.364;2023-02-19T05:12:26;22.33;;;17.53;;
11098;SDS011;12223;42.650;23.364;2023-02-19T05:14:55;43.87;;;40.60;;
11098;SDS011;12223;42.650;23.364;2023-02-19T05:17:21;23.10;;;20.90;;
11098;SDS011;12223;42.650;23.364;2023-02-19T05:19:48;20.67;;;17.57;;
11098;SDS011;12223;42.650;23.364;2023-02-19T05:22:15;17.70;;;12.93;;
11098;SDS011;12223;42.650;23.364;2023-02-19T05:24:42;19.33;;;17.43;;
11098;SDS011;12223;42.650;23.364;2023-02-19T05:27:09;14.30;;;11.70;;
11098;SDS011;12223;42.650;23.364;2023-02-19T05:29:37;22.57;;;14.73;;
11098;SDS011;12223;42.650;23.364;2023-02-19T05:32:04;19.33;;;15.77;;
11098;SDS011;12223;42.650;23.364;2023-02-19T05:34:30;16.93;;;13.20;;
11098;SDS011;12223;42.650;23.364;2023-02-19T05:36:57;24.23;;;16.27;;
11098;SDS011;12223;42.650;23.364;2023-02-19T05:39:24;22.17;;;14.17;;
11098;SDS011;12223;42.650;23.364;2023-02-19T05:41:51;16.77;;;14.20;;
11098;SDS011;12223;42.650;23.364;2023-02-19T05:44:17;17.63;;;12.93;;
11098;SDS011;12223;42.650;23.364;2023-02-19T05:46:45;26.17;;;15.87;;
11098;SDS011;12223;42.650;23.364;2023-02-19T05:49:12;24.60;;;21.97;;
11098;SDS011;12223;42.650;23.364;2023-02-19T05:51:39;15.93;;;14.23;;
11098;SDS011;12223;42.650;23.364;2023-02-19T05:54:06;19.07;;;14.97;;
11098;SDS011;12223;42.650;23.364;2023-02-19T05:56:33;16.73;;;11.77;;
11098;SDS011;12223;42.650;23.364;2023-02-19T05:59:02;16.60;;;11.60;;
11098;SDS011;12223;42.650;23.364;2023-02-19T06:01:32;16.73;;;14.83;;
11098;SDS011;12223;42.650;23.364;2023-02-19T06:04:00;15.87;;;14.20;;
11098;SDS011;12223;42.650;23.364;2023-02-19T06:06:27;26.90;;;16.57;;
11098;SDS011;12223;42.650;23.364;2023-02-19T06:08:54;20.00;;;14.53;;
11098;SDS011;12223;42.650;23.364;2023-02-19T06:11:21;21.10;;;16.43;;
11098;SDS011;12223;42.650;23.364;2023-02-19T06:13:49;13.07;;;11.60;;
11098;SDS011;12223;42.650;23.364;2023-02-19T06:16:16;18.30;;;12.60;;
11098;SDS011;12223;42.650;23.364;2023-02-19T06:18:43;16.47;;;12.93;;
11098;SDS011;12223;42.650;23.364;2023-02-19T06:21:13;14.13;;;10.37;;
11098;SDS011;12223;42.650;23.364;2023-02-19T06:23:41;14.40;;;10.93;;
11098;SDS011;12223;42.650;23.364;2023-02-19T06:26:10;12.30;;;10.83;;
11098;SDS011;12223;42.650;23.364;2023-02-19T06:28:39;16.80;;;12.97;;
11098;SDS011;12223;42.650;23.364;2023-02-19T06:31:07;13.77;;;10.97;;
11098;SDS011;12223;42.650;23.364;2023-02-19T06:33:35;14.20;;;11.33;;
11098;SDS011;12223;42.650;23.364;2023-02-19T06:36:04;11.80;;;10.33;;
11098;SDS011;12223;42.650;23.364;2023-02-19T06:38:34;12.37;;;11.07;;
11098;SDS011;12223;42.650;23.364;2023-02-19T06:41:01;12.80;;;11.57;;
11098;SDS011;12223;42.650;23.364;2023-02-19T06:43:29;12.17;;;11.07;;
11098;SDS011;12223;42.650;23.364;2023-02-19T06:45:57;11.53;;;10.30;;
11098;SDS011;12223;42.650;23.364;2023-02-19T06:48:24;11.63;;;9.53;;
11098;SDS011;12223;42.650;23.364;2023-02-19T06:50:51;12.30;;;10.93;;
11098;SDS011;12223;42.650;23.364;2023-02-19T06:53:18;11.85;;;10.85;;
11098;SDS011;12223;42.650;23.364;2023-02-19T06:55:55;11.68;;;10.57;;
11098;SDS011;12223;42.650;23.364;2023-02-19T06:58:22;12.18;;;10.77;;
11098;SDS011;12223;42.650;23.364;2023-02-19T07:00:49;12.70;;;11.35;;
11098;SDS011;12223;42.650;23.364;2023-02-19T07:03:15;12.60;;;11.40;;
11098;SDS011;12223;42.650;23.364;2023-02-19T07:05:42;10.90;;;9.90;;
11098;SDS011;12223;42.650;23.364;2023-02-19T07:08:09;11.07;;;9.88;;
11098;SDS011;12223;42.650;23.364;2023-02-19T07:10:36;12.10;;;10.93;;
11098;SDS011;12223;42.650;23.364;2023-02-19T07:13:04;11.00;;;9.90;;
11098;SDS011;12223;42.650;23.364;2023-02-19T07:15:30;11.13;;;10.13;;
11098;SDS011;12223;42.650;23.364;2023-02-19T07:17:57;10.48;;;9.48;;
11098;SDS011;12223;42.650;23.364;2023-02-19T07:20:25;11.38;;;9.02;;
11098;SDS011;12223;42.650;23.364;2023-02-19T07:22:51;10.50;;;9.20;;
11098;SDS011;12223;42.650;23.364;2023-02-19T07:25:18;9.73;;;8.82;;
11098;SDS011;12223;42.650;23.364;2023-02-19T07:27:45;9.77;;;8.82;;
11098;SDS011;12223;42.650;23.364;2023-02-19T07:30:14;11.02;;;9.93;;
11098;SDS011;12223;42.650;23.364;2023-02-19T07:32:40;10.48;;;9.32;;
11098;SDS011;12223;42.650;23.364;2023-02-19T07:35:09;10.77;;;9.70;;
11098;SDS011;12223;42.650;23.364;2023-02-19T07:37:36;10.07;;;9.10;;
11098;SDS011;12223;42.650;23.364;2023-02-19T07:40:03;12.77;;;8.53;;
11098;SDS011;12223;42.650;23.364;2023-02-19T07:42:31;8.87;;;7.40;;
11098;SDS011;12223;42.650;23.364;2023-02-19T07:44:58;9.23;;;8.13;;
11098;SDS011;12223;42.650;23.364;2023-02-19T07:47:26;9.07;;;7.50;;
11098;SDS011;12223;42.650;23.364;2023-02-19T07:49:54;8.70;;;7.23;;
11098;SDS011;12223;42.650;23.364;2023-02-19T07:52:20;9.70;;;8.43;;
11098;SDS011;12223;42.650;23.364;2023-02-19T07:54:47;9.13;;;7.90;;
11098;SDS011;12223;42.650;23.364;2023-02-19T07:57:14;9.00;;;7.97;;
11098;SDS011;12223;42.650;23.364;2023-02-19T07:59:41;9.00;;;8.20;;
11098;SDS011;12223;42.650;23.364;2023-02-19T08:02:10;11.63;;;8.47;;
11098;SDS011;12223;42.650;23.364;2023-02-19T08:05:00;11.10;;;7.87;;
11098;SDS011;12223;42.650;23.364;2023-02-19T08:07:29;8.90;;;8.00;;
11098;SDS011;12223;42.650;23.364;2023-02-19T08:09:56;8.63;;;7.83;;
11098;SDS011;12223;42.650;23.364;2023-02-19T08:12:53;10.77;;;7.83;;
11098;SDS011;12223;42.650;23.364;2023-02-19T08:15:38;8.70;;;7.90;;
11098;SDS011;12223;42.650;23.364;2023-02-19T08:18:04;9.80;;;8.73;;
11098;SDS011;12223;42.650;23.364;2023-02-19T08:20:33;9.40;;;8.10;;
11098;SDS011;12223;42.650;23.364;2023-02-19T08:22:59;10.07;;;9.03;;
11098;SDS011;12223;42.650;23.364;2023-02-19T08:25:26;8.57;;;7.80;;
11098;SDS011;12223;42.650;23.364;2023-02-19T08:27:53;9.37;;;8.47;;
11098;SDS011;12223;42.650;23.364;2023-02-19T08:30:20;8.23;;;7.53;;
11098;SDS011;12223;42.650;23.364;2023-02-19T08:32:47;8.83;;;8.03;;
11098;SDS011;12223;42.650;23.364;2023-02-19T08:35:14;12.90;;;7.90;;
11098;SDS011;12223;42.650;23.364;2023-02-19T08:37:42;8.80;;;7.77;;
11098;SDS011;12223;42.650;23.364;2023-02-19T08:40:09;8.23;;;7.43;;
11098;SDS011;12223;42.650;23.364;2023-02-19T08:42:36;10.00;;;7.93;;
11098;SDS011;12223;42.650;23.364;2023-02-19T08:45:04;8.27;;;7.43;;
11098;SDS011;12223;42.650;23.364;2023-02-19T08:47:32;10.87;;;6.97;;
11098;SDS011;12223;42.650;23.364;2023-02-19T08:49:59;8.40;;;7.57;;
11098;SDS011;12223;42.650;23.364;2023-02-19T08:52:26;8.30;;;7.47;;
11098;SDS011;12223;42.650;23.364;2023-02-19T08:54:54;8.30;;;7.33;;
11098;SDS011;12223;42.650;23.364;2023-02-19T08:57:22;8.50;;;7.70;;
11098;SDS011;12223;42.650;23.364;2023-02-19T08:59:49;9.13;;;7.00;;
11098;SDS011;12223;42.650;23.364;2023-02-19T09:02:15;8.43;;;7.60;;
11098;SDS011;12223;42.650;23.364;2023-02-19T09:04:42;7.93;;;7.33;;
11098;SDS011;12223;42.650;23.364;2023-02-19T09:07:09;10.20;;;7.43;;
11098;SDS011;12223;42.650;23.364;2023-02-19T09:09:37;10.93;;;6.70;;
11098;SDS011;12223;42.650;23.364;2023-02-19T09:12:07;8.30;;;7.37;;
11098;SDS011;12223;42.650;23.364;2023-02-19T09:14:35;7.20;;;6.60;;
11098;SDS011;12223;42.650;23.364;2023-02-19T09:17:03;7.17;;;6.30;;
11098;SDS011;12223;42.650;23.364;2023-02-19T09:19:31;7.43;;;6.82;;
11098;SDS011;12223;42.650;23.364;2023-02-19T09:21:58;7.70;;;6.97;;
11098;SDS011;12223;42.650;23.364;2023-02-19T09:24:25;8.18;;;6.53;;
11098;SDS011;12223;42.650;23.364;2023-02-19T09:26:53;9.82;;;7.50;;
11098;SDS011;12223;42.650;23.364;2023-02-19T09:29:22;7.33;;;6.67;;
11098;SDS011;12223;42.650;23.364;2023-02-19T09:31:50;9.77;;;7.05;;
11098;SDS011;12223;42.650;23.364;2023-02-19T09:34:21;10.23;;;7.28;;
11098;SDS011;12223;42.650;23.364;2023-02-19T09:36:49;7.85;;;7.13;;
11098;SDS011;12223;42.650;23.364;2023-02-19T09:39:16;8.27;;;7.57;;
11098;SDS011;12223;42.650;23.364;2023-02-19T09:41:43;9.80;;;9.00;;
11098;SDS011;12223;42.650;23.364;2023-02-19T09:44:13;9.35;;;8.57;;
11098;SDS011;12223;42.650;23.364;2023-02-19T09:46:48;12.30;;;8.50;;
11098;SDS011;12223;42.650;23.364;2023-02-19T09:49:18;9.60;;;8.60;;
11098;SDS011;12223;42.650;23.364;2023-02-19T09:51:57;9.52;;;8.73;;
11098;SDS011;12223;42.650;23.364;2023-02-19T09:54:29;9.18;;;8.38;;
11098;SDS011;12223;42.650;23.364;2023-02-19T09:56:59;9.98;;;9.10;;
11098;SDS011;12223;42.650;23.364;2023-02-19T09:59:27;9.15;;;8.55;;
11098;SDS011;12223;42.650;23.364;2023-02-19T10:02:00;10.25;;;9.45;;
11098;SDS011;12223;42.650;23.364;2023-02-19T10:04:29;12.52;;;10.27;;
11098;SDS011;12223;42.650;23.364;2023-02-19T10:06:57;11.40;;;10.70;;
11098;SDS011;12223;42.650;23.364;2023-02-19T10:09:28;11.43;;;10.52;;
11098;SDS011;12223;42.650;23.364;2023-02-19T10:11:56;15.60;;;14.25;;
11098;SDS011;12223;42.650;23.364;2023-02-19T10:14:26;16.90;;;15.70;;
11098;SDS011;12223;42.650;23.364;2023-02-19T10:17:02;13.23;;;11.90;;
11098;SDS011;12223;42.650;23.364;2023-02-19T10:19:30;10.68;;;9.70;;
11098;SDS011;12223;42.650;23.364;2023-02-19T10:21:58;22.77;;;21.50;;
11098;SDS011;12223;42.650;23.364;2023-02-19T10:24:27;11.95;;;11.00;;
11098;SDS011;12223;42.650;23.364;2023-02-19T10:26:55;11.65;;;10.85;;
11098;SDS011;12223;42.650;23.364;2023-02-19T10:29:22;11.02;;;9.93;;
11098;SDS011;12223;42.650;23.364;2023-02-19T10:34:42;10.32;;;9.52;;
11098;SDS011;12223;42.650;23.364;2023-02-19T10:37:10;9.45;;;8.63;;
11098;SDS011;12223;42.650;23.364;2023-02-19T10:39:41;8.70;;;7.90;;
11098;SDS011;12223;42.650;23.364;2023-02-19T10:42:14;8.27;;;7.57;;
11098;SDS011;12223;42.650;23.364;2023-02-19T10:44:43;8.73;;;7.93;;
11098;SDS011;12223;42.650;23.364;2023-02-19T10:47:17;8.40;;;7.78;;
11098;SDS011;12223;42.650;23.364;2023-02-19T10:49:47;8.88;;;8.18;;
11098;SDS011;12223;42.650;23.364;2023-02-19T10:52:17;8.13;;;7.53;;
11098;SDS011;12223;42.650;23.364;2023-02-19T10:54:48;9.57;;;8.68;;
11098;SDS011;12223;42.650;23.364;2023-02-19T10:57:23;8.90;;;8.10;;
11098;SDS011;12223;42.650;23.364;2023-02-19T10:59:55;8.95;;;8.15;;
11098;SDS011;12223;42.650;23.364;2023-02-19T11:02:24;9.48;;;8.68;;
11098;SDS011;12223;42.650;23.364;2023-02-19T11:05:02;10.10;;;9.23;;
11098;SDS011;12223;42.650;23.364;2023-02-19T11:07:44;9.43;;;8.77;;
11098;SDS011;12223;42.650;23.364;2023-02-19T11:10:21;10.10;;;9.05;;
11098;SDS011;12223;42.650;23.364;2023-02-19T11:12:52;9.68;;;8.98;;
11098;SDS011;12223;42.650;23.364;2023-02-19T11:15:21;13.65;;;12.43;;
11098;SDS011;12223;42.650;23.364;2023-02-19T11:18:00;15.50;;;14.32;;
11098;SDS011;12223;42.650;23.364;2023-02-19T11:20:30;10.95;;;10.07;;
11098;SDS011;12223;42.650;23.364;2023-02-19T11:22:58;10.50;;;9.50;;
11098;SDS011;12223;42.650;23.364;2023-02-19T11:25:43;9.60;;;8.70;;
11098;SDS011;12223;42.650;23.364;2023-02-19T11:28:19;11.02;;;10.27;;
11098;SDS011;12223;42.650;23.364;2023-02-19T11:30:52;14.85;;;13.82;;
11098;SDS011;12223;42.650;23.364;2023-02-19T11:33:24;18.17;;;17.20;;
11098;SDS011;12223;42.650;23.364;2023-02-19T11:36:04;18.58;;;17.33;;
11098;SDS011;12223;42.650;23.364;2023-02-19T11:38:50;18.70;;;17.45;;
11098;SDS011;12223;42.650;23.364;2023-02-19T11:41:19;17.02;;;15.90;;
11098;SDS011;12223;42.650;23.364;2023-02-19T11:44:01;23.58;;;22.30;;
11098;SDS011;12223;42.650;23.364;2023-02-19T11:46:37;27.25;;;25.52;;
11098;SDS011;12223;42.650;23.364;2023-02-19T11:49:15;22.50;;;21.30;;
11098;SDS011;12223;42.650;23.364;2023-02-19T11:51:56;19.33;;;18.23;;
11098;SDS011;12223;42.650;23.364;2023-02-19T11:54:42;14.30;;;13.45;;
11098;SDS011;12223;42.650;23.364;2023-02-19T11:57:17;11.18;;;10.43;;
11098;SDS011;12223;42.650;23.364;2023-02-19T11:59:59;11.30;;;10.45;;
11098;SDS011;12223;42.650;23.364;2023-02-19T12:02:42;14.55;;;13.60;;
11098;SDS011;12223;42.650;23.364;2023-02-19T12:08:26;20.45;;;18.88;;
11098;SDS011;12223;42.650;23.364;2023-02-19T12:11:28;15.77;;;14.88;;
11098;SDS011;12223;42.650;23.364;2023-02-19T12:14:19;15.70;;;14.80;;
11098;SDS011;12223;42.650;23.364;2023-02-19T12:17:04;13.82;;;13.02;;
11098;SDS011;12223;42.650;23.364;2023-02-19T12:19:43;16.20;;;13.75;;
11098;SDS011;12223;42.650;23.364;2023-02-19T12:22:27;12.98;;;11.82;;
11098;SDS011;12223;42.650;23.364;2023-02-19T12:28:12;10.18;;;9.20;;
11098;SDS011;12223;42.650;23.364;2023-02-19T12:30:52;11.32;;;10.38;;
11098;SDS011;12223;42.650;23.364;2023-02-19T12:33:38;10.55;;;9.68;;
11098;SDS011;12223;42.650;23.364;2023-02-19T12:36:16;10.93;;;9.93;;
11098;SDS011;12223;42.650;23.364;2023-02-19T12:38:53;11.25;;;10.35;;
11098;SDS011;12223;42.650;23.364;2023-02-19T12:41:30;13.13;;;10.80;;
11098;SDS011;12223;42.650;23.364;2023-02-19T12:44:08;11.68;;;10.48;;
11098;SDS011;12223;42.650;23.364;2023-02-19T12:46:39;12.52;;;11.23;;
11098;SDS011;12223;42.650;23.364;2023-02-19T12:49:10;11.23;;;10.27;;
11098;SDS011;12223;42.650;23.364;2023-02-19T12:51:42;15.38;;;10.70;;
11098;SDS011;12223;42.650;23.364;2023-02-19T12:54:13;10.45;;;9.68;;
11098;SDS011;12223;42.650;23.364;2023-02-19T12:56:47;11.15;;;10.15;;
11098;SDS011;12223;42.650;23.364;2023-02-19T12:59:20;10.85;;;10.10;;
11098;SDS011;12223;42.650;23.364;2023-02-19T13:01:51;10.93;;;10.13;;
11098;SDS011;12223;42.650;23.364;2023-02-19T13:04:25;12.35;;;9.55;;
11098;SDS011;12223;42.650;23.364;2023-02-19T13:07:01;12.05;;;11.20;;
11098;SDS011;12223;42.650;23.364;2023-02-19T13:09:36;12.40;;;11.35;;
11098;SDS011;12223;42.650;23.364;2023-02-19T13:12:07;11.13;;;10.10;;
11098;SDS011;12223;42.650;23.364;2023-02-19T13:14:39;10.68;;;9.68;;
11098;SDS011;12223;42.650;23.364;2023-02-19T13:17:14;10.90;;;9.85;;
11098;SDS011;12223;42.650;23.364;2023-02-19T13:19:48;10.65;;;9.75;;
11098;SDS011;12223;42.650;23.364;2023-02-19T13:22:21;11.57;;;10.52;;
11098;SDS011;12223;42.650;23.364;2023-02-19T13:25:13;24.52;;;10.50;;
11098;SDS011;12223;42.650;23.364;2023-02-19T13:27:55;10.32;;;9.32;;
11098;SDS011;12223;42.650;23.364;2023-02-19T13:33:52;11.27;;;10.48;;
11098;SDS011;12223;42.650;23.364;2023-02-19T13:36:27;15.73;;;11.40;;
11098;SDS011;12223;42.650;23.364;2023-02-19T13:38:55;11.18;;;10.25;;
11098;SDS011;12223;42.650;23.364;2023-02-19T13:41:28;9.93;;;9.18;;
11098;SDS011;12223;42.650;23.364;2023-02-19T13:43:58;10.68;;;9.68;;
11098;SDS011;12223;42.650;23.364;2023-02-19T13:46:32;9.23;;;8.52;;
11098;SDS011;12223;42.650;23.364;2023-02-19T14:01:18;9.55;;;8.65;;
11098;SDS011;12223;42.650;23.364;2023-02-19T14:04:06;9.48;;;8.77;;
11098;SDS011;12223;42.650;23.364;2023-02-19T14:09:43;11.32;;;10.50;;
11098;SDS011;12223;42.650;23.364;2023-02-19T14:12:18;11.63;;;10.43;;
11098;SDS011;12223;42.650;23.364;2023-02-19T14:14:46;12.68;;;11.35;;
11098;SDS011;12223;42.650;23.364;2023-02-19T14:17:25;12.05;;;11.13;;
11098;SDS011;12223;42.650;23.364;2023-02-19T14:19:53;11.48;;;10.43;;
11098;SDS011;12223;42.650;23.364;2023-02-19T14:28:28;17.85;;;8.48;;
11098;SDS011;12223;42.650;23.364;2023-02-19T14:31:01;10.95;;;8.55;;
11098;SDS011;12223;42.650;23.364;2023-02-19T14:33:43;11.88;;;10.88;;
11098;SDS011;12223;42.650;23.364;2023-02-19T14:36:15;11.30;;;10.40;;
11098;SDS011;12223;42.650;23.364;2023-02-19T14:38:49;11.05;;;10.15;;
11098;SDS011;12223;42.650;23.364;2023-02-19T14:41:18;9.85;;;8.68;;
11098;SDS011;12223;42.650;23.364;2023-02-19T14:43:48;9.65;;;8.70;;
11098;SDS011;12223;42.650;23.364;2023-02-19T14:46:18;9.68;;;8.80;;
11098;SDS011;12223;42.650;23.364;2023-02-19T14:48:54;10.15;;;9.27;;
11098;SDS011;12223;42.650;23.364;2023-02-19T14:51:27;12.50;;;10.25;;
11098;SDS011;12223;42.650;23.364;2023-02-19T14:53:57;9.98;;;9.18;;
11098;SDS011;12223;42.650;23.364;2023-02-19T14:56:30;9.40;;;8.57;;
11098;SDS011;12223;42.650;23.364;2023-02-19T14:59:06;10.18;;;8.73;;
11098;SDS011;12223;42.650;23.364;2023-02-19T15:01:42;9.52;;;8.38;;
11098;SDS011;12223;42.650;23.364;2023-02-19T15:04:19;8.65;;;8.02;;
11098;SDS011;12223;42.650;23.364;2023-02-19T15:06:47;10.02;;;8.63;;
11098;SDS011;12223;42.650;23.364;2023-02-19T15:09:17;11.43;;;10.32;;
11098;SDS011;12223;42.650;23.364;2023-02-19T15:11:45;9.30;;;8.40;;
11098;SDS011;12223;42.650;23.364;2023-02-19T15:14:15;9.15;;;8.35;;